createdAt,value
2016-09-30T00:00:44.428Z,0
2016-09-30T00:01:44.427Z,0
2016-09-30T00:02:44.468Z,0
2016-09-30T00:03:44.496Z,0
2016-09-30T00:04:44.499Z,0
2016-09-30T00:05:44.526Z,0
2016-09-30T00:06:44.546Z,0
2016-09-30T00:07:44.576Z,0
2016-09-30T00:08:44.586Z,0
2016-09-30T00:09:44.607Z,0
2016-09-30T00:10:44.623Z,0
2016-09-30T00:11:44.652Z,0
2016-09-30T00:12:44.656Z,0
2016-09-30T00:13:44.697Z,0
2016-09-30T00:14:44.716Z,0
2016-09-30T00:15:44.722Z,0
2016-09-30T00:16:44.764Z,0
2016-09-30T00:17:44.760Z,0
2016-09-30T00:18:44.775Z,0
2016-09-30T00:19:44.806Z,0
2016-09-30T00:20:44.832Z,0
2016-09-30T00:21:44.830Z,0
2016-09-30T00:22:44.867Z,0
2016-09-30T00:23:44.882Z,0
2016-09-30T00:24:44.915Z,0
2016-09-30T00:25:44.924Z,0
2016-09-30T00:26:44.923Z,0
2016-09-30T00:27:44.951Z,0
2016-09-30T00:28:44.980Z,0
2016-09-30T00:29:44.980Z,0
2016-09-30T00:30:45.009Z,0
2016-09-30T00:31:45.045Z,0
2016-09-30T00:32:45.045Z,0
2016-09-30T00:33:45.088Z,0
2016-09-30T00:34:45.094Z,0
2016-09-30T00:35:45.123Z,0
2016-09-30T00:36:45.121Z,0
2016-09-30T00:37:45.165Z,0
2016-09-30T00:38:45.177Z,0
2016-09-30T00:39:45.189Z,0
2016-09-30T00:40:45.206Z,0
2016-09-30T00:41:45.243Z,0
2016-09-30T00:42:45.238Z,0
2016-09-30T00:43:45.262Z,0
2016-09-30T00:44:45.298Z,0
2016-09-30T00:45:45.321Z,0
2016-09-30T00:46:45.330Z,0
2016-09-30T00:47:45.366Z,0
2016-09-30T00:48:45.371Z,0
2016-09-30T00:49:45.401Z,0
2016-09-30T00:50:45.415Z,0
2016-09-30T00:51:45.428Z,0
2016-09-30T00:52:45.470Z,0
2016-09-30T00:53:45.464Z,0
2016-09-30T00:54:45.490Z,0
2016-09-30T00:55:45.513Z,0
2016-09-30T00:56:45.528Z,0
2016-09-30T00:57:45.550Z,0
2016-09-30T00:58:45.571Z,0
2016-09-30T00:59:45.596Z,0
2016-09-30T01:00:45.636Z,0
2016-09-30T01:01:45.616Z,0
2016-09-30T01:02:45.659Z,0
2016-09-30T01:03:45.667Z,0
2016-09-30T01:04:45.677Z,0
2016-09-30T01:05:45.715Z,0
2016-09-30T01:06:45.719Z,0
2016-09-30T01:07:45.756Z,0
2016-09-30T01:08:45.757Z,0
2016-09-30T01:09:45.802Z,0
2016-09-30T01:10:45.804Z,0
2016-09-30T01:11:45.847Z,0
2016-09-30T01:12:45.838Z,0
2016-09-30T01:13:45.875Z,0
2016-09-30T01:14:45.888Z,0
2016-09-30T01:15:45.909Z,0
2016-09-30T01:16:45.948Z,0
2016-09-30T01:17:45.960Z,0
2016-09-30T01:18:45.962Z,0
2016-09-30T01:19:45.982Z,0
2016-09-30T01:20:46.012Z,0
2016-09-30T01:21:46.028Z,0
2016-09-30T01:22:46.043Z,0
2016-09-30T01:23:46.058Z,0
2016-09-30T01:24:46.087Z,0
2016-09-30T01:25:46.105Z,0
2016-09-30T01:26:46.117Z,0
2016-09-30T01:27:46.141Z,0
2016-09-30T01:28:46.164Z,0
2016-09-30T01:29:46.190Z,0
2016-09-30T01:30:46.208Z,0
2016-09-30T01:31:46.240Z,0
2016-09-30T01:32:46.225Z,0
2016-09-30T01:33:46.272Z,0
2016-09-30T01:34:46.290Z,0
2016-09-30T01:35:46.302Z,0
2016-09-30T01:36:46.326Z,0
2016-09-30T01:37:46.342Z,0
2016-09-30T01:38:46.373Z,0
2016-09-30T01:39:46.379Z,0
2016-09-30T01:40:46.411Z,0
2016-09-30T01:41:46.445Z,0
2016-09-30T01:42:46.448Z,0
2016-09-30T01:43:46.461Z,0
2016-09-30T01:44:46.496Z,0
2016-09-30T01:45:46.486Z,0
2016-09-30T01:46:46.523Z,0
2016-09-30T01:47:46.573Z,0
2016-09-30T01:48:46.561Z,0
2016-09-30T01:49:46.586Z,0
2016-09-30T01:50:46.597Z,0
2016-09-30T01:51:46.626Z,0
2016-09-30T01:52:46.641Z,0
2016-09-30T01:53:46.648Z,0
2016-09-30T01:54:46.693Z,0
2016-09-30T01:55:46.721Z,0
2016-09-30T01:56:46.731Z,0
2016-09-30T01:57:46.758Z,0
2016-09-30T01:58:46.754Z,0
2016-09-30T01:59:46.800Z,0
2016-09-30T02:00:46.807Z,0
2016-09-30T02:01:46.837Z,0
2016-09-30T02:02:46.853Z,0
2016-09-30T02:03:46.879Z,0
2016-09-30T02:04:46.892Z,0
2016-09-30T02:05:46.903Z,0
2016-09-30T02:06:46.909Z,0
2016-09-30T02:07:46.939Z,0
2016-09-30T02:08:46.956Z,0
2016-09-30T02:09:46.986Z,0
2016-09-30T02:10:47.001Z,0
2016-09-30T02:11:47.007Z,0
2016-09-30T02:12:47.034Z,0
2016-09-30T02:13:47.074Z,0
2016-09-30T02:14:47.083Z,0
2016-09-30T02:15:47.109Z,0
2016-09-30T02:16:47.126Z,0
2016-09-30T02:17:47.137Z,0
2016-09-30T02:18:47.155Z,0
2016-09-30T02:19:47.181Z,0
2016-09-30T02:20:47.198Z,0
2016-09-30T02:21:47.213Z,0
2016-09-30T02:22:47.256Z,0
2016-09-30T02:23:47.269Z,0
2016-09-30T02:24:47.293Z,0
2016-09-30T02:25:47.299Z,0
2016-09-30T02:26:47.329Z,0
2016-09-30T02:27:47.344Z,0
2016-09-30T02:28:47.362Z,0
2016-09-30T02:29:47.386Z,0
2016-09-30T02:30:47.407Z,0
2016-09-30T02:31:47.418Z,0
2016-09-30T02:32:47.778Z,0
2016-09-30T02:33:47.450Z,0
2016-09-30T02:34:47.464Z,0
2016-09-30T02:35:47.506Z,0
2016-09-30T02:36:47.527Z,0
2016-09-30T02:37:47.545Z,0
2016-09-30T02:38:47.569Z,0
2016-09-30T02:39:47.595Z,0
2016-09-30T02:40:47.586Z,0
2016-09-30T02:41:47.618Z,0
2016-09-30T02:42:47.646Z,0
2016-09-30T02:43:47.680Z,0
2016-09-30T02:44:47.682Z,0
2016-09-30T02:45:47.707Z,0
2016-09-30T02:46:47.732Z,0
2016-09-30T02:47:47.749Z,0
2016-09-30T02:48:47.756Z,0
2016-09-30T02:49:47.785Z,0
2016-09-30T02:50:47.800Z,0
2016-09-30T02:51:47.822Z,0
2016-09-30T02:52:47.830Z,0
2016-09-30T02:53:47.877Z,0
2016-09-30T02:54:47.881Z,0
2016-09-30T02:55:47.898Z,0
2016-09-30T02:56:47.920Z,0
2016-09-30T02:57:47.950Z,0
2016-09-30T02:58:47.958Z,0
2016-09-30T02:59:48.001Z,0
2016-09-30T03:00:48.005Z,0
2016-09-30T03:01:48.026Z,0
2016-09-30T03:02:48.037Z,0
2016-09-30T03:03:48.050Z,0
2016-09-30T03:04:48.091Z,0
2016-09-30T03:05:48.092Z,0
2016-09-30T03:06:48.138Z,0
2016-09-30T03:07:48.142Z,0
2016-09-30T03:08:48.151Z,0
2016-09-30T03:09:48.170Z,0
2016-09-30T03:10:48.197Z,0
2016-09-30T03:11:48.227Z,0
2016-09-30T03:12:48.231Z,0
2016-09-30T03:13:48.262Z,0
2016-09-30T03:14:48.264Z,0
2016-09-30T03:15:48.319Z,0
2016-09-30T03:16:48.312Z,0
2016-09-30T03:17:48.358Z,0
2016-09-30T03:18:48.355Z,0
2016-09-30T03:19:48.391Z,0
2016-09-30T03:20:48.408Z,0
2016-09-30T03:21:48.424Z,0
2016-09-30T03:22:48.451Z,0
2016-09-30T03:23:48.451Z,0
2016-09-30T03:24:48.492Z,0
2016-09-30T03:25:48.510Z,0
2016-09-30T03:26:48.495Z,0
2016-09-30T03:27:48.551Z,0
2016-09-30T03:28:48.539Z,0
2016-09-30T03:29:48.578Z,0
2016-09-30T03:30:48.599Z,0
2016-09-30T03:31:48.619Z,0
2016-09-30T03:32:48.629Z,0
2016-09-30T03:33:48.661Z,0
2016-09-30T03:34:48.674Z,0
2016-09-30T03:35:48.689Z,0
2016-09-30T03:36:48.704Z,0
2016-09-30T03:37:48.733Z,0
2016-09-30T03:38:48.740Z,0
2016-09-30T03:39:48.790Z,0
2016-09-30T03:40:48.789Z,0
2016-09-30T03:41:48.825Z,0
2016-09-30T03:42:48.833Z,0
2016-09-30T03:43:48.850Z,0
2016-09-30T03:44:48.868Z,0
2016-09-30T03:45:48.888Z,0
2016-09-30T03:46:48.902Z,0
2016-09-30T03:47:48.943Z,0
2016-09-30T03:48:48.939Z,0
2016-09-30T03:49:48.976Z,0
2016-09-30T03:50:48.993Z,0
2016-09-30T03:51:49.011Z,0
2016-09-30T03:52:49.033Z,0
2016-09-30T03:53:49.073Z,0
2016-09-30T03:54:49.065Z,0
2016-09-30T03:55:49.100Z,0
2016-09-30T03:56:49.120Z,0
2016-09-30T03:57:49.124Z,0
2016-09-30T03:58:49.165Z,0
2016-09-30T03:59:49.176Z,0
2016-09-30T04:01:20.512Z,0
2016-09-30T04:01:49.239Z,0
2016-09-30T04:02:49.239Z,0
2016-09-30T04:03:49.278Z,0
2016-09-30T04:04:49.290Z,0
2016-09-30T04:05:49.303Z,0
2016-09-30T04:06:49.315Z,0
2016-09-30T04:07:49.340Z,0
2016-09-30T04:08:49.365Z,0
2016-09-30T04:09:49.393Z,0
2016-09-30T04:10:49.413Z,0
2016-09-30T04:11:49.423Z,0
2016-09-30T04:12:49.449Z,0
2016-09-30T04:13:49.466Z,0
2016-09-30T04:14:49.492Z,0
2016-09-30T04:15:49.525Z,0
2016-09-30T04:16:49.529Z,0
2016-09-30T04:17:49.543Z,0
2016-09-30T04:18:49.564Z,0
2016-09-30T04:19:49.590Z,0
2016-09-30T04:20:49.607Z,0
2016-09-30T04:21:49.625Z,0
2016-09-30T04:22:49.633Z,0
2016-09-30T04:23:49.672Z,0
2016-09-30T04:24:49.681Z,0
2016-09-30T04:25:49.698Z,0
2016-09-30T04:26:49.717Z,0
2016-09-30T04:27:49.746Z,0
2016-09-30T04:28:49.788Z,0
2016-09-30T04:29:49.778Z,0
2016-09-30T04:30:49.814Z,0
2016-09-30T04:31:49.828Z,0
2016-09-30T04:32:49.838Z,0
2016-09-30T04:33:49.867Z,0
2016-09-30T04:34:49.896Z,0
2016-09-30T04:35:49.909Z,0
2016-09-30T04:36:49.932Z,0
2016-09-30T04:37:49.958Z,0
2016-09-30T04:38:49.960Z,0
2016-09-30T04:39:49.988Z,0
2016-09-30T04:40:50.006Z,0
2016-09-30T04:41:50.031Z,0
2016-09-30T04:42:50.055Z,0
2016-09-30T04:43:50.061Z,0
2016-09-30T04:44:50.093Z,0
2016-09-30T04:45:50.107Z,0
2016-09-30T04:46:50.139Z,0
2016-09-30T04:47:50.133Z,0
2016-09-30T04:48:50.162Z,0
2016-09-30T04:49:50.185Z,0
2016-09-30T04:50:50.189Z,0
2016-09-30T04:51:50.225Z,0
2016-09-30T04:52:50.261Z,0
2016-09-30T04:53:50.246Z,0
2016-09-30T04:54:50.270Z,0
2016-09-30T04:55:50.302Z,0
2016-09-30T04:56:50.331Z,0
2016-09-30T04:57:50.661Z,0
2016-09-30T04:58:50.352Z,0
2016-09-30T04:59:50.380Z,0
2016-09-30T05:00:50.411Z,0
2016-09-30T05:01:50.421Z,0
2016-09-30T05:02:50.458Z,4
2016-09-30T05:03:50.471Z,4
2016-09-30T05:04:50.481Z,0
2016-09-30T05:05:50.505Z,4
2016-09-30T05:06:50.516Z,4
2016-09-30T05:07:50.562Z,4
2016-09-30T05:08:50.563Z,8
2016-09-30T05:09:50.599Z,4
2016-09-30T05:10:50.591Z,12
2016-09-30T05:11:50.630Z,8
2016-09-30T05:12:50.647Z,12
2016-09-30T05:13:50.669Z,16
2016-09-30T05:14:50.661Z,20
2016-09-30T05:15:50.695Z,20
2016-09-30T05:16:50.728Z,20
2016-09-30T05:17:50.745Z,24
2016-09-30T05:18:50.761Z,28
2016-09-30T05:19:50.788Z,36
2016-09-30T05:20:50.795Z,40
2016-09-30T05:21:50.831Z,44
2016-09-30T05:22:50.841Z,48
2016-09-30T05:23:50.866Z,52
2016-09-30T05:24:50.864Z,60
2016-09-30T05:25:50.910Z,68
2016-09-30T05:26:50.935Z,72
2016-09-30T05:27:50.947Z,84
2016-09-30T05:28:50.969Z,88
2016-09-30T05:29:50.997Z,92
2016-09-30T05:30:51.010Z,96
2016-09-30T05:31:51.032Z,92
2016-09-30T05:32:51.033Z,92
2016-09-30T05:33:51.059Z,92
2016-09-30T05:34:51.073Z,96
2016-09-30T05:35:51.117Z,104
2016-09-30T05:36:51.118Z,112
2016-09-30T05:37:51.145Z,120
2016-09-30T05:38:51.170Z,132
2016-09-30T05:39:51.171Z,144
2016-09-30T05:40:51.181Z,156
2016-09-30T05:41:51.221Z,168
2016-09-30T05:42:51.244Z,176
2016-09-30T05:43:51.264Z,172
2016-09-30T05:44:51.296Z,164
2016-09-30T05:45:51.321Z,188
2016-09-30T05:46:51.320Z,212
2016-09-30T05:47:51.333Z,208
2016-09-30T05:48:51.370Z,200
2016-09-30T05:49:51.382Z,204
2016-09-30T05:50:51.385Z,232
2016-09-30T05:51:51.422Z,272
2016-09-30T05:52:51.440Z,316
2016-09-30T05:53:51.467Z,372
2016-09-30T05:54:51.502Z,440
2016-09-30T05:55:51.813Z,524
2016-09-30T05:56:51.526Z,576
2016-09-30T05:57:51.547Z,596
2016-09-30T05:58:51.568Z,576
2016-09-30T05:59:51.576Z,568
2016-09-30T06:00:51.588Z,552
2016-09-30T06:01:51.607Z,556
2016-09-30T06:02:51.639Z,572
2016-09-30T06:03:51.669Z,580
2016-09-30T06:04:51.672Z,608
2016-09-30T06:05:51.687Z,636
2016-09-30T06:06:51.712Z,644
2016-09-30T06:07:51.745Z,632
2016-09-30T06:08:51.772Z,700
2016-09-30T06:09:51.762Z,820
2016-09-30T06:10:51.781Z,912
2016-09-30T06:11:51.811Z,944
2016-09-30T06:12:51.832Z,948
2016-09-30T06:13:51.852Z,1008
2016-09-30T06:14:51.868Z,1176
2016-09-30T06:15:51.896Z,1400
2016-09-30T06:16:51.927Z,1552
2016-09-30T06:17:51.931Z,1640
2016-09-30T06:18:51.958Z,1648
2016-09-30T06:19:51.988Z,1600
2016-09-30T06:20:51.998Z,1544
2016-09-30T06:21:52.026Z,1572
2016-09-30T06:22:52.031Z,1656
2016-09-30T06:23:52.061Z,1784
2016-09-30T06:24:52.081Z,1864
2016-09-30T06:25:52.084Z,1912
2016-09-30T06:26:52.113Z,1936
2016-09-30T06:27:52.146Z,1952
2016-09-30T06:28:52.150Z,1964
2016-09-30T06:29:52.176Z,1992
2016-09-30T06:30:52.197Z,2048
2016-09-30T06:31:52.222Z,2080
2016-09-30T06:32:52.246Z,2108
2016-09-30T06:33:52.245Z,2148
2016-09-30T06:34:52.270Z,2192
2016-09-30T06:35:52.297Z,2212
2016-09-30T06:36:52.308Z,2224
2016-09-30T06:37:52.330Z,2256
2016-09-30T06:38:52.344Z,2300
2016-09-30T06:39:52.382Z,2360
2016-09-30T06:40:52.408Z,2412
2016-09-30T06:41:52.422Z,2464
2016-09-30T06:42:52.435Z,2512
2016-09-30T06:43:52.467Z,2500
2016-09-30T06:44:52.488Z,2488
2016-09-30T06:45:52.490Z,2448
2016-09-30T06:46:52.525Z,2452
2016-09-30T06:47:52.533Z,2492
2016-09-30T06:48:52.569Z,2568
2016-09-30T06:49:52.581Z,2648
2016-09-30T06:50:52.599Z,2716
2016-09-30T06:51:52.631Z,2792
2016-09-30T06:52:52.625Z,2872
2016-09-30T06:53:52.665Z,2960
2016-09-30T06:54:52.680Z,3044
2016-09-30T06:55:52.716Z,3108
2016-09-30T06:56:52.723Z,3096
2016-09-30T06:57:52.728Z,3088
2016-09-30T06:58:52.747Z,3108
2016-09-30T06:59:52.784Z,3136
2016-09-30T07:00:52.816Z,3176
2016-09-30T07:01:52.823Z,3232
2016-09-30T07:02:52.821Z,3268
2016-09-30T07:03:52.846Z,3280
2016-09-30T07:04:52.874Z,3248
2016-09-30T07:05:52.892Z,3228
2016-09-30T07:06:52.932Z,3228
2016-09-30T07:07:52.954Z,3276
2016-09-30T07:08:52.958Z,3356
2016-09-30T07:09:52.978Z,3468
2016-09-30T07:10:53.018Z,3584
2016-09-30T07:11:53.033Z,3664
2016-09-30T07:12:53.046Z,3684
2016-09-30T07:13:53.084Z,3692
2016-09-30T07:14:53.080Z,3724
2016-09-30T07:15:53.103Z,3772
2016-09-30T07:16:53.127Z,3828
2016-09-30T07:17:53.144Z,3900
2016-09-30T07:18:53.169Z,4016
2016-09-30T07:19:53.186Z,4012
2016-09-30T07:20:53.197Z,4136
2016-09-30T07:21:53.221Z,4140
2016-09-30T07:22:53.240Z,4164
2016-09-30T07:23:53.272Z,4236
2016-09-30T07:24:53.286Z,4272
2016-09-30T07:25:53.314Z,4308
2016-09-30T07:26:53.331Z,4324
2016-09-30T07:27:53.347Z,4300
2016-09-30T07:28:53.372Z,4304
2016-09-30T07:29:53.390Z,4456
2016-09-30T07:30:53.393Z,4880
2016-09-30T07:31:53.427Z,5396
2016-09-30T07:32:53.457Z,5152
2016-09-30T07:33:53.477Z,4932
2016-09-30T07:34:53.492Z,4688
2016-09-30T07:35:53.519Z,4372
2016-09-30T07:36:53.527Z,4008
2016-09-30T07:37:53.561Z,3832
2016-09-30T07:38:53.586Z,3716
2016-09-30T07:39:53.605Z,3584
2016-09-30T07:40:53.614Z,3476
2016-09-30T07:41:53.655Z,3404
2016-09-30T07:42:53.649Z,3172
2016-09-30T07:43:53.680Z,2920
2016-09-30T07:44:53.708Z,2780
2016-09-30T07:45:53.714Z,2788
2016-09-30T07:46:53.725Z,2896
2016-09-30T07:47:53.753Z,3040
2016-09-30T07:48:53.773Z,3100
2016-09-30T07:49:53.812Z,3120
2016-09-30T07:50:53.810Z,3060
2016-09-30T07:51:53.832Z,3016
2016-09-30T07:52:53.934Z,2940
2016-09-30T07:53:53.908Z,2864
2016-09-30T07:54:53.897Z,2848
2016-09-30T07:55:53.926Z,2880
2016-09-30T07:56:53.929Z,2872
2016-09-30T07:57:53.965Z,2768
2016-09-30T07:59:54.001Z,2520
2016-09-30T08:00:54.031Z,2476
2016-09-30T08:01:54.046Z,2552
2016-09-30T08:02:54.088Z,2632
2016-09-30T08:03:54.095Z,2572
2016-09-30T08:04:54.121Z,2532
2016-09-30T08:05:54.121Z,2572
2016-09-30T08:06:54.151Z,2724
2016-09-30T08:07:54.182Z,3040
2016-09-30T08:08:54.200Z,3184
2016-09-30T08:09:54.207Z,3176
2016-09-30T08:10:54.243Z,3296
2016-09-30T08:11:54.259Z,3504
2016-09-30T08:12:54.284Z,3624
2016-09-30T08:13:54.288Z,3696
2016-09-30T08:14:54.317Z,3688
2016-09-30T08:15:54.337Z,3624
2016-09-30T08:16:54.357Z,3764
2016-09-30T08:17:54.390Z,4288
2016-09-30T08:18:54.387Z,4404
2016-09-30T08:19:54.419Z,4260
2016-09-30T08:20:54.442Z,4200
2016-09-30T08:21:54.464Z,4208
2016-09-30T08:22:54.482Z,4496
2016-09-30T08:23:54.493Z,4652
2016-09-30T08:24:54.546Z,5192
2016-09-30T08:25:54.544Z,5040
2016-09-30T08:26:54.548Z,5296
2016-09-30T08:27:54.575Z,5428
2016-09-30T08:28:54.908Z,5300
2016-09-30T08:29:54.617Z,5128
2016-09-30T08:30:54.645Z,5140
2016-09-30T08:31:54.662Z,5312
2016-09-30T08:32:54.677Z,5428
2016-09-30T08:33:54.695Z,5464
2016-09-30T08:34:54.733Z,5408
2016-09-30T08:35:54.753Z,5424
2016-09-30T08:36:54.782Z,5440
2016-09-30T08:37:54.800Z,5572
2016-09-30T08:38:54.810Z,5604
2016-09-30T08:39:54.831Z,5660
2016-09-30T08:40:54.866Z,5648
2016-09-30T08:41:54.889Z,5408
2016-09-30T08:42:54.901Z,5396
2016-09-30T08:43:54.917Z,5712
2016-09-30T08:44:54.936Z,5972
2016-09-30T08:45:54.961Z,5956
2016-09-30T08:46:54.976Z,5752
2016-09-30T08:47:54.996Z,5612
2016-09-30T08:48:55.021Z,5632
2016-09-30T08:49:55.052Z,5700
2016-09-30T08:50:55.070Z,5764
2016-09-30T08:51:55.093Z,5744
2016-09-30T08:52:55.091Z,5860
2016-09-30T08:53:55.137Z,5976
2016-09-30T08:54:55.134Z,6024
2016-09-30T08:55:55.173Z,5900
2016-09-30T08:56:55.195Z,5808
2016-09-30T08:57:55.211Z,5888
2016-09-30T08:58:55.225Z,5916
2016-09-30T08:59:55.264Z,6064
2016-09-30T09:00:55.263Z,6120
2016-09-30T09:01:55.292Z,6108
2016-09-30T09:02:55.333Z,6140
2016-09-30T09:03:55.333Z,6184
2016-09-30T09:04:55.367Z,6404
2016-09-30T09:05:55.410Z,6592
2016-09-30T09:06:55.399Z,6536
2016-09-30T09:07:55.423Z,6276
2016-09-30T09:08:55.772Z,6088
2016-09-30T09:09:55.471Z,6092
2016-09-30T09:10:55.508Z,6156
2016-09-30T09:11:55.527Z,6256
2016-09-30T09:12:55.537Z,6252
2016-09-30T09:13:55.577Z,6072
2016-09-30T09:14:55.569Z,5748
2016-09-30T09:15:55.626Z,5632
2016-09-30T09:16:55.628Z,5752
2016-09-30T09:17:55.628Z,5768
2016-09-30T09:18:55.852Z,5580
2016-09-30T09:19:55.694Z,5436
2016-09-30T09:20:55.710Z,5548
2016-09-30T09:21:55.755Z,5516
2016-09-30T09:22:55.735Z,5412
2016-09-30T09:23:55.783Z,5472
2016-09-30T09:24:55.788Z,5580
2016-09-30T09:25:56.148Z,5504
2016-09-30T09:26:55.824Z,5500
2016-09-30T09:27:55.864Z,5648
2016-09-30T09:28:55.864Z,5904
2016-09-30T09:29:55.901Z,6192
2016-09-30T09:30:55.992Z,6260
2016-09-30T09:31:55.945Z,6272
2016-09-30T09:32:55.974Z,6380
2016-09-30T09:33:55.984Z,6180
2016-09-30T09:34:56.007Z,6400
2016-09-30T09:35:56.023Z,6296
2016-09-30T09:36:56.049Z,6044
2016-09-30T09:37:56.074Z,6188
2016-09-30T09:38:56.098Z,6356
2016-09-30T09:39:56.126Z,6760
2016-09-30T09:40:56.133Z,6504
2016-09-30T09:41:56.152Z,6284
2016-09-30T09:42:56.180Z,5812
2016-09-30T09:43:56.192Z,6372
2016-09-30T09:44:56.221Z,6504
2016-09-30T09:45:56.236Z,6740
2016-09-30T09:46:56.252Z,6624
2016-09-30T09:47:56.286Z,6532
2016-09-30T09:48:56.301Z,6104
2016-09-30T09:49:56.339Z,5784
2016-09-30T09:50:56.350Z,5796
2016-09-30T09:51:56.998Z,6216
2016-09-30T09:52:56.384Z,6636
2016-09-30T09:53:56.422Z,6572
2016-09-30T09:54:56.442Z,6508
2016-09-30T09:55:56.482Z,6768
2016-09-30T09:56:56.473Z,6860
2016-09-30T09:57:56.514Z,6704
2016-09-30T09:58:56.528Z,6852
2016-09-30T09:59:56.536Z,6908
2016-09-30T10:00:56.555Z,7120
2016-09-30T10:01:56.584Z,7320
2016-09-30T10:02:56.622Z,7400
2016-09-30T10:03:56.624Z,7332
2016-09-30T10:04:56.654Z,7064
2016-09-30T10:05:56.683Z,6932
2016-09-30T10:06:56.697Z,6800
2016-09-30T10:07:56.716Z,7040
2016-09-30T10:08:56.747Z,7476
2016-09-30T10:09:56.771Z,7760
2016-09-30T10:10:56.784Z,7576
2016-09-30T10:11:56.815Z,7680
2016-09-30T10:12:56.831Z,7940
2016-09-30T10:13:56.851Z,7896
2016-09-30T10:14:56.868Z,8780
2016-09-30T10:15:56.895Z,8880
2016-09-30T10:16:56.924Z,8800
2016-09-30T10:17:56.931Z,8420
2016-09-30T10:18:56.965Z,8044
2016-09-30T10:19:56.980Z,8048
2016-09-30T10:20:57.008Z,8024
2016-09-30T10:21:57.030Z,7872
2016-09-30T10:22:57.047Z,7564
2016-09-30T10:23:57.062Z,7884
2016-09-30T10:24:57.106Z,8072
2016-09-30T10:25:57.118Z,8344
2016-09-30T10:26:57.138Z,8144
2016-09-30T10:27:57.161Z,8132
2016-09-30T10:28:57.186Z,8336
2016-09-30T10:29:57.539Z,8688
2016-09-30T10:30:57.224Z,9592
2016-09-30T10:31:57.264Z,9848
2016-09-30T10:32:57.293Z,9776
2016-09-30T10:33:57.295Z,9392
2016-09-30T10:34:57.333Z,9204
2016-09-30T10:35:57.346Z,7476
2016-09-30T10:36:57.410Z,7936
2016-09-30T10:37:57.410Z,8088
2016-09-30T10:38:57.465Z,7576
2016-09-30T10:39:57.431Z,7632
2016-09-30T10:40:57.501Z,8028
2016-09-30T10:41:57.470Z,8424
2016-09-30T10:42:57.504Z,8844
2016-09-30T10:43:57.522Z,9676
2016-09-30T10:44:57.547Z,9532
2016-09-30T10:45:57.573Z,9720
2016-09-30T10:46:57.568Z,9280
2016-09-30T10:47:57.596Z,9460
2016-09-30T10:48:57.621Z,9168
2016-09-30T10:49:57.650Z,9496
2016-09-30T10:50:57.663Z,9632
2016-09-30T10:51:57.690Z,8864
2016-09-30T10:52:57.697Z,9056
2016-09-30T10:53:57.722Z,9436
2016-09-30T10:54:57.763Z,9676
2016-09-30T10:55:57.781Z,9644
2016-09-30T10:56:57.801Z,9172
2016-09-30T10:57:57.834Z,8464
2016-09-30T10:58:57.853Z,8228
2016-09-30T10:59:57.879Z,7796
2016-09-30T11:00:57.881Z,7592
2016-09-30T11:01:57.916Z,7408
2016-09-30T11:02:57.931Z,7324
2016-09-30T11:03:57.966Z,7104
2016-09-30T11:04:57.978Z,6952
2016-09-30T11:05:57.986Z,6808
2016-09-30T11:06:58.034Z,6832
2016-09-30T11:07:58.047Z,6972
2016-09-30T11:08:58.059Z,7176
2016-09-30T11:09:58.102Z,7440
2016-09-30T11:10:58.105Z,7924
2016-09-30T11:11:58.150Z,8468
2016-09-30T11:12:58.161Z,9072
2016-09-30T11:13:58.187Z,9692
2016-09-30T11:14:58.197Z,9924
2016-09-30T11:15:58.224Z,10224
2016-09-30T11:16:58.259Z,10236
2016-09-30T11:17:58.274Z,10120
2016-09-30T11:18:58.292Z,9400
2016-09-30T11:19:58.340Z,9192
2016-09-30T11:20:58.335Z,9104
2016-09-30T11:21:58.354Z,9896
2016-09-30T11:22:58.380Z,10548
2016-09-30T11:23:58.413Z,10116
2016-09-30T11:24:58.465Z,10128
2016-09-30T11:25:58.470Z,9828
2016-09-30T11:26:58.474Z,9336
2016-09-30T11:27:58.499Z,9768
2016-09-30T11:28:58.523Z,8688
2016-09-30T11:29:58.527Z,8072
2016-09-30T11:30:58.578Z,7924
2016-09-30T11:31:58.591Z,7564
2016-09-30T11:32:58.603Z,7124
2016-09-30T11:33:58.671Z,6772
2016-09-30T11:34:58.649Z,6580
2016-09-30T11:35:58.667Z,6668
2016-09-30T11:36:58.692Z,7176
2016-09-30T11:37:58.727Z,7136
2016-09-30T11:38:58.757Z,7396
2016-09-30T11:39:58.783Z,7580
2016-09-30T11:40:58.786Z,7848
2016-09-30T11:41:58.819Z,8112
2016-09-30T11:42:58.815Z,8400
2016-09-30T11:43:58.857Z,8604
2016-09-30T11:44:58.870Z,8744
2016-09-30T11:45:58.904Z,8860
2016-09-30T11:46:58.920Z,9060
2016-09-30T11:47:58.964Z,9352
2016-09-30T11:48:58.960Z,9672
2016-09-30T11:49:58.995Z,9560
2016-09-30T11:50:59.008Z,9380
2016-09-30T11:51:59.375Z,9516
2016-09-30T11:52:59.043Z,9608
2016-09-30T11:53:59.093Z,9572
2016-09-30T11:54:59.096Z,9432
2016-09-30T11:55:59.116Z,9344
2016-09-30T11:56:59.143Z,8920
2016-09-30T11:57:59.179Z,8560
2016-09-30T11:58:59.197Z,8352
2016-09-30T11:59:59.223Z,8416
2016-09-30T12:00:59.239Z,8532
2016-09-30T12:01:59.253Z,8908
2016-09-30T12:02:59.279Z,8756
2016-09-30T12:03:59.306Z,8660
2016-09-30T12:04:59.321Z,8612
2016-09-30T12:05:59.347Z,8448
2016-09-30T12:06:59.376Z,8312
2016-09-30T12:07:59.397Z,8164
2016-09-30T12:08:59.420Z,8048
2016-09-30T12:09:59.436Z,7988
2016-09-30T12:10:59.449Z,8120
2016-09-30T12:11:59.478Z,8164
2016-09-30T12:12:59.544Z,7888
2016-09-30T12:13:59.538Z,7356
2016-09-30T12:14:59.551Z,6852
2016-09-30T12:15:59.596Z,6580
2016-09-30T12:16:59.590Z,6596
2016-09-30T12:17:59.624Z,6884
2016-09-30T12:18:59.702Z,7416
2016-09-30T12:19:59.673Z,7604
2016-09-30T12:20:59.759Z,7560
2016-09-30T12:21:59.697Z,7448
2016-09-30T12:22:59.762Z,7392
2016-09-30T12:23:59.766Z,7480
2016-09-30T12:24:59.808Z,7416
2016-09-30T12:25:59.803Z,7048
2016-09-30T12:26:59.856Z,6796
2016-09-30T12:27:59.849Z,6584
2016-09-30T12:28:59.887Z,6528
2016-09-30T12:29:59.885Z,6604
2016-09-30T12:30:59.928Z,6592
2016-09-30T12:31:59.946Z,6632
2016-09-30T12:32:59.929Z,6832
2016-09-30T12:34:00.012Z,7152
2016-09-30T12:35:00.022Z,7504
2016-09-30T12:36:00.017Z,7708
2016-09-30T12:37:00.051Z,7832
2016-09-30T12:38:00.063Z,7272
2016-09-30T12:39:00.092Z,7192
2016-09-30T12:40:00.127Z,7100
2016-09-30T12:41:00.131Z,7264
2016-09-30T12:42:00.158Z,7580
2016-09-30T12:43:00.199Z,7800
2016-09-30T12:44:00.200Z,7924
2016-09-30T12:45:00.229Z,8068
2016-09-30T12:46:00.234Z,8056
2016-09-30T12:47:00.279Z,8064
2016-09-30T12:48:00.288Z,8004
2016-09-30T12:49:00.316Z,7968
2016-09-30T12:50:00.337Z,8048
2016-09-30T12:51:00.374Z,8112
2016-09-30T12:52:00.375Z,8148
2016-09-30T12:53:00.394Z,8044
2016-09-30T12:54:00.451Z,7944
2016-09-30T12:55:00.462Z,7876
2016-09-30T12:56:00.466Z,7936
2016-09-30T12:57:00.483Z,8068
2016-09-30T12:58:00.548Z,8056
2016-09-30T12:59:00.553Z,8028
2016-09-30T13:00:00.612Z,8176
2016-09-30T13:01:00.617Z,8568
2016-09-30T13:02:00.620Z,8768
2016-09-30T13:03:00.618Z,8856
2016-09-30T13:04:00.651Z,8992
2016-09-30T13:05:00.659Z,9180
2016-09-30T13:06:00.694Z,8876
2016-09-30T13:07:00.728Z,8996
2016-09-30T13:08:00.745Z,8084
2016-09-30T13:09:00.746Z,7428
2016-09-30T13:10:00.782Z,6952
2016-09-30T13:11:00.805Z,6676
2016-09-30T13:12:00.810Z,6508
2016-09-30T13:13:00.863Z,6340
2016-09-30T13:14:00.867Z,6240
2016-09-30T13:15:00.902Z,6308
2016-09-30T13:16:00.911Z,6624
2016-09-30T13:17:00.937Z,6968
2016-09-30T13:18:00.973Z,7272
2016-09-30T13:19:00.980Z,7224
2016-09-30T13:20:01.010Z,7168
2016-09-30T13:21:01.028Z,7596
2016-09-30T13:22:01.044Z,8188
2016-09-30T13:23:01.070Z,8492
2016-09-30T13:24:01.099Z,8296
2016-09-30T13:25:01.118Z,8476
2016-09-30T13:26:01.151Z,8196
2016-09-30T13:27:01.166Z,7640
2016-09-30T13:28:01.185Z,6860
2016-09-30T13:29:01.198Z,6728
2016-09-30T13:30:01.228Z,6652
2016-09-30T13:31:01.261Z,6336
2016-09-30T13:32:01.275Z,6012
2016-09-30T13:33:01.303Z,5772
2016-09-30T13:34:01.315Z,5692
2016-09-30T13:35:01.344Z,5508
2016-09-30T13:36:01.359Z,5604
2016-09-30T13:37:01.393Z,5808
2016-09-30T13:38:01.435Z,5928
2016-09-30T13:39:01.439Z,6084
2016-09-30T13:40:01.480Z,6380
2016-09-30T13:41:01.480Z,6436
2016-09-30T13:42:01.502Z,6632
2016-09-30T13:43:01.518Z,6512
2016-09-30T13:44:01.544Z,6180
2016-09-30T13:45:01.553Z,6092
2016-09-30T13:46:01.586Z,5856
2016-09-30T13:47:01.609Z,5572
2016-09-30T13:48:01.634Z,5476
2016-09-30T13:49:01.667Z,5532
2016-09-30T13:50:01.671Z,5968
2016-09-30T13:51:01.694Z,6052
2016-09-30T13:52:02.171Z,6240
2016-09-30T13:53:01.736Z,6180
2016-09-30T13:54:01.751Z,6316